createdAt,value
2022-08-27T00:02:13.940Z,7.00
2022-08-27T00:04:42.101Z,7.77
2022-08-27T00:07:11.370Z,6.87
2022-08-27T00:09:39.587Z,7.70
2022-08-27T00:12:09.142Z,6.80
2022-08-27T00:14:38.671Z,7.17
2022-08-27T00:17:07.945Z,6.53
2022-08-27T00:19:36.903Z,7.30
2022-08-27T00:22:05.960Z,7.30
2022-08-27T00:24:33.979Z,6.87
2022-08-27T00:27:02.077Z,6.30
2022-08-27T00:29:31.657Z,7.13
2022-08-27T00:32:00.407Z,7.30
2022-08-27T00:34:28.741Z,6.57
2022-08-27T00:36:56.741Z,6.67
2022-08-27T00:39:25.016Z,6.27
2022-08-27T00:41:52.990Z,6.33
2022-08-27T00:44:20.996Z,6.00
2022-08-27T00:46:52.737Z,6.10
2022-08-27T00:49:24.465Z,6.20
2022-08-27T00:51:56.651Z,6.30
2022-08-27T00:54:26.332Z,6.50
2022-08-27T00:56:54.432Z,6.20
2022-08-27T00:59:24.975Z,6.87
2022-08-27T01:02:11.752Z,6.70
2022-08-27T01:04:41.342Z,7.07
2022-08-27T01:07:09.950Z,7.80
2022-08-27T01:09:38.606Z,7.40
2022-08-27T01:12:07.215Z,8.60
2022-08-27T01:15:00.346Z,8.30
2022-08-27T01:17:29.747Z,8.03
2022-08-27T01:20:00.447Z,8.60
2022-08-27T01:22:34.434Z,9.13
2022-08-27T01:25:08.183Z,10.00
2022-08-27T01:27:36.532Z,10.53
2022-08-27T01:30:05.673Z,10.00
2022-08-27T01:32:35.481Z,9.83
2022-08-27T01:35:07.127Z,8.87
2022-08-27T01:37:35.959Z,8.93
2022-08-27T01:40:07.158Z,9.20
2022-08-27T01:42:37.543Z,9.00
2022-08-27T01:45:08.794Z,8.40
2022-08-27T01:47:37.804Z,8.43
2022-08-27T01:50:09.163Z,8.03
2022-08-27T01:52:37.181Z,8.00
2022-08-27T01:55:09.388Z,8.43
2022-08-27T01:57:37.514Z,8.90
2022-08-27T02:00:07.202Z,7.17
2022-08-27T02:02:40.066Z,7.23
2022-08-27T02:05:08.481Z,7.37
2022-08-27T02:07:37.388Z,7.60
2022-08-27T02:10:09.445Z,7.37
2022-08-27T02:12:37.553Z,6.70
2022-08-27T02:15:06.840Z,7.87
2022-08-27T02:17:35.195Z,7.10
2022-08-27T02:20:03.623Z,7.47
2022-08-27T02:22:31.954Z,7.30
2022-08-27T02:24:59.932Z,8.10
2022-08-27T02:27:29.411Z,7.20
2022-08-27T02:29:57.428Z,7.50
2022-08-27T02:32:31.672Z,7.40
2022-08-27T02:35:00.667Z,7.80
2022-08-27T02:37:28.688Z,7.20
2022-08-27T02:39:57.133Z,7.87
2022-08-27T02:42:25.214Z,7.63
2022-08-27T02:44:54.993Z,7.50
2022-08-27T02:47:23.007Z,7.40
2022-08-27T02:49:51.074Z,6.83
2022-08-27T02:52:22.772Z,6.77
2022-08-27T02:54:53.588Z,7.00
2022-08-27T02:57:22.523Z,7.13
2022-08-27T02:59:50.960Z,7.30
2022-08-27T03:02:20.912Z,7.20
2022-08-27T03:04:49.596Z,8.00
2022-08-27T03:07:19.593Z,7.60
2022-08-27T03:09:47.843Z,7.50
2022-08-27T03:12:16.028Z,6.80
2022-08-27T03:14:44.651Z,7.10
2022-08-27T03:17:30.535Z,7.30
2022-08-27T03:20:01.593Z,7.97
2022-08-27T03:22:29.638Z,7.50
2022-08-27T03:24:57.646Z,7.27
2022-08-27T03:27:25.655Z,6.90
2022-08-27T03:29:54.225Z,7.87
2022-08-27T03:32:22.283Z,7.20
2022-08-27T03:34:50.352Z,7.50
2022-08-27T03:37:19.760Z,7.23
2022-08-27T03:39:47.800Z,7.90
2022-08-27T03:42:15.804Z,6.87
2022-08-27T03:44:43.846Z,7.80
2022-08-27T03:47:11.918Z,7.20
2022-08-27T03:49:40.003Z,7.67
2022-08-27T03:52:08.823Z,8.33
2022-08-27T03:54:38.794Z,7.80
2022-08-27T03:57:07.590Z,7.67
2022-08-27T03:59:36.022Z,7.40
2022-08-27T04:02:04.164Z,7.70
2022-08-27T04:04:32.454Z,7.10
2022-08-27T04:07:01.071Z,7.93
2022-08-27T04:09:29.337Z,7.47
2022-08-27T04:11:58.815Z,7.63
2022-08-27T04:14:27.645Z,8.13
2022-08-27T04:16:56.913Z,7.17
2022-08-27T04:19:28.101Z,9.83
2022-08-27T04:22:01.226Z,7.87
2022-08-27T04:24:30.730Z,6.80
2022-08-27T04:27:00.916Z,7.00
2022-08-27T04:29:29.427Z,7.10
2022-08-27T04:31:57.683Z,7.10
2022-08-27T04:34:25.880Z,7.50
2022-08-27T04:36:56.716Z,7.30
2022-08-27T04:39:25.248Z,7.70
2022-08-27T04:41:54.988Z,7.60
2022-08-27T04:44:25.401Z,8.33
2022-08-27T04:46:56.631Z,8.33
2022-08-27T04:49:25.260Z,6.80
2022-08-27T04:51:53.412Z,7.80
2022-08-27T04:54:22.497Z,8.27
2022-08-27T04:57:00.671Z,8.27
2022-08-27T04:59:30.301Z,8.23
2022-08-27T05:01:58.451Z,9.33
2022-08-27T05:04:26.752Z,8.73
2022-08-27T05:06:54.973Z,7.90
2022-08-27T05:09:24.588Z,8.90
2022-08-27T05:11:55.480Z,8.27
2022-08-27T05:14:25.410Z,10.10
2022-08-27T05:16:54.800Z,8.47
2022-08-27T05:19:22.799Z,8.60
2022-08-27T05:21:53.161Z,8.43
2022-08-27T05:24:21.495Z,9.30
2022-08-27T05:26:49.851Z,10.37
2022-08-27T05:29:18.157Z,8.90
2022-08-27T05:31:47.936Z,7.93
2022-08-27T05:34:24.689Z,8.53
2022-08-27T05:36:55.571Z,8.50
2022-08-27T05:39:23.700Z,8.50
2022-08-27T05:41:52.943Z,8.20
2022-08-27T05:47:09.181Z,8.47
2022-08-27T05:49:38.931Z,8.10
2022-08-27T05:52:10.492Z,9.07
2022-08-27T05:54:38.961Z,8.70
2022-08-27T05:57:07.155Z,7.60
2022-08-27T05:59:53.104Z,8.60
2022-08-27T06:02:21.864Z,8.47
2022-08-27T06:04:51.353Z,8.93
2022-08-27T06:07:19.859Z,9.47
2022-08-27T06:09:47.868Z,8.87
2022-08-27T06:12:15.985Z,9.50
2022-08-27T06:14:44.101Z,8.90
2022-08-27T06:17:12.257Z,8.90
2022-08-27T06:19:42.409Z,8.93
2022-08-27T06:22:12.024Z,8.30
2022-08-27T06:24:41.577Z,9.10
2022-08-27T06:27:11.290Z,8.50
2022-08-27T06:29:39.878Z,8.07
2022-08-27T06:32:09.209Z,8.40
2022-08-27T06:34:38.122Z,8.73
2022-08-27T06:37:06.389Z,8.30
2022-08-27T06:39:37.558Z,8.77
2022-08-27T06:42:06.314Z,9.27
2022-08-27T06:44:35.255Z,8.63
2022-08-27T06:47:04.682Z,8.87
2022-08-27T06:49:33.768Z,8.70
2022-08-27T06:52:02.262Z,8.50
2022-08-27T06:54:30.820Z,8.87
2022-08-27T06:57:01.063Z,8.07
2022-08-27T06:59:29.239Z,9.43
2022-08-27T07:01:57.453Z,8.77
2022-08-27T07:04:32.376Z,8.93
2022-08-27T07:07:04.246Z,10.40
2022-08-27T07:09:33.057Z,9.00
2022-08-27T07:12:02.738Z,9.20
2022-08-27T07:14:37.163Z,8.50
2022-08-27T07:17:10.767Z,9.47
2022-08-27T07:19:41.093Z,8.40
2022-08-27T07:22:09.637Z,9.63
2022-08-27T07:24:38.482Z,9.07
2022-08-27T07:27:08.525Z,9.37
2022-08-27T07:29:36.626Z,8.30
2022-08-27T07:32:05.480Z,9.27
2022-08-27T07:34:33.531Z,9.23
2022-08-27T07:37:02.044Z,9.73
2022-08-27T07:39:30.156Z,8.50
2022-08-27T07:42:16.391Z,8.70
2022-08-27T07:44:46.088Z,8.77
2022-08-27T07:47:14.173Z,9.23
2022-08-27T07:49:42.241Z,8.90
2022-08-27T07:52:10.612Z,8.77
2022-08-27T07:54:38.685Z,8.27
2022-08-27T07:57:06.848Z,8.70
2022-08-27T07:59:34.972Z,8.70
2022-08-27T08:02:05.476Z,8.80
2022-08-27T08:04:33.526Z,8.37
2022-08-27T08:07:01.692Z,7.87
2022-08-27T08:09:32.189Z,8.30
2022-08-27T08:12:00.285Z,8.00
2022-08-27T08:14:28.401Z,8.20
2022-08-27T08:17:00.471Z,8.03
2022-08-27T08:19:35.057Z,8.10
2022-08-27T08:22:05.819Z,8.17
2022-08-27T08:24:35.239Z,7.80
2022-08-27T08:27:07.205Z,8.10
2022-08-27T08:29:36.859Z,8.50
2022-08-27T08:32:05.483Z,8.23
2022-08-27T08:34:36.781Z,8.60
2022-08-27T08:37:05.344Z,7.90
2022-08-27T08:39:33.433Z,9.13
2022-08-27T08:42:03.199Z,8.17
2022-08-27T08:44:34.162Z,7.90
2022-08-27T08:47:09.595Z,8.10
2022-08-27T08:49:48.137Z,8.40
2022-08-27T08:52:31.261Z,7.90
2022-08-27T08:55:08.631Z,9.20
2022-08-27T08:57:41.110Z,7.90
2022-08-27T09:00:13.341Z,8.20
2022-08-27T09:02:42.877Z,8.70
2022-08-27T09:05:13.011Z,8.53
2022-08-27T09:07:47.278Z,9.10
2022-08-27T09:10:20.824Z,9.17
2022-08-27T09:12:48.915Z,8.50
2022-08-27T09:15:20.348Z,8.53
2022-08-27T09:17:48.988Z,6.70
2022-08-27T09:20:21.381Z,6.80
2022-08-27T09:22:59.239Z,9.07
2022-08-27T09:25:29.749Z,7.27
2022-08-27T09:28:00.195Z,10.70
2022-08-27T09:30:31.095Z,10.13
2022-08-27T09:33:56.298Z,11.10
2022-08-27T09:36:26.513Z,10.43
2022-08-27T09:38:58.914Z,11.37
2022-08-27T09:41:29.316Z,10.20
2022-08-27T09:43:58.901Z,9.83
2022-08-27T09:46:28.248Z,9.20
2022-08-27T09:48:56.856Z,10.00
2022-08-27T09:51:28.461Z,9.47
2022-08-27T09:53:58.698Z,9.63
2022-08-27T09:56:30.004Z,9.60
2022-08-27T09:59:03.692Z,10.20
2022-08-27T10:01:34.354Z,10.10
2022-08-27T10:04:09.668Z,8.97
2022-08-27T10:06:45.989Z,8.13
2022-08-27T10:09:17.663Z,8.30
2022-08-27T10:11:51.121Z,7.90
2022-08-27T10:14:26.563Z,8.07
2022-08-27T10:17:07.916Z,8.30
2022-08-27T10:19:43.895Z,8.40
2022-08-27T10:22:21.210Z,7.70
2022-08-27T10:25:01.285Z,7.50
2022-08-27T10:27:34.833Z,7.67
2022-08-27T10:30:06.429Z,7.30
2022-08-27T10:32:52.362Z,6.90
2022-08-27T10:35:25.346Z,5.97
2022-08-27T10:38:02.890Z,7.20
2022-08-27T10:40:35.227Z,5.80
2022-08-27T10:43:19.574Z,7.07
2022-08-27T10:45:52.718Z,6.53
2022-08-27T10:48:25.178Z,5.93
2022-08-27T10:50:59.365Z,5.80
2022-08-27T10:53:33.695Z,5.90
2022-08-27T10:56:10.160Z,6.30
2022-08-27T10:58:55.742Z,7.33
2022-08-27T11:01:31.693Z,7.00
2022-08-27T11:04:03.697Z,6.80
2022-08-27T11:06:33.706Z,6.93
2022-08-27T11:09:08.315Z,6.80
2022-08-27T11:12:12.780Z,6.70
2022-08-27T11:14:32.160Z,7.03
2022-08-27T11:17:04.801Z,7.20
2022-08-27T11:19:47.969Z,6.97
2022-08-27T11:22:26.232Z,7.00
2022-08-27T11:25:01.172Z,7.97
2022-08-27T11:27:32.071Z,6.77
2022-08-27T11:30:05.223Z,7.37
2022-08-27T11:32:41.685Z,6.13
2022-08-27T11:35:16.459Z,6.50
2022-08-27T11:38:22.282Z,6.17
2022-08-27T11:41:00.857Z,7.10
2022-08-27T11:43:30.473Z,6.80
2022-08-27T11:46:00.554Z,6.13
2022-08-27T11:48:30.609Z,5.83
2022-08-27T11:51:01.186Z,5.57
2022-08-27T11:53:31.484Z,6.50
2022-08-27T11:56:11.821Z,5.97
2022-08-27T11:58:53.087Z,7.57
2022-08-27T12:01:27.165Z,6.00
2022-08-27T12:04:01.999Z,6.10
2022-08-27T12:06:42.600Z,5.67
2022-08-27T12:09:17.622Z,5.73
2022-08-27T12:11:56.804Z,5.27
2022-08-27T12:14:37.553Z,5.77
2022-08-27T12:17:09.441Z,5.50
2022-08-27T12:19:47.118Z,5.27
2022-08-27T12:23:01.035Z,4.80
2022-08-27T12:25:29.491Z,5.30
2022-08-27T12:28:03.173Z,4.80
2022-08-27T12:30:33.296Z,5.00
2022-08-27T12:33:10.132Z,4.67
2022-08-27T12:35:44.183Z,4.83
2022-08-27T12:38:17.190Z,5.10
2022-08-27T12:40:49.545Z,5.00
2022-08-27T12:43:22.716Z,4.93
2022-08-27T12:45:53.273Z,5.07
2022-08-27T12:48:24.675Z,4.37
2022-08-27T12:50:54.100Z,5.20
2022-08-27T12:53:38.846Z,5.20
2022-08-27T12:56:21.226Z,4.80
2022-08-27T12:58:53.893Z,5.30
2022-08-27T13:01:32.274Z,4.80
2022-08-27T13:04:01.333Z,5.13
2022-08-27T13:06:33.088Z,5.00
2022-08-27T13:09:02.503Z,5.17
2022-08-27T13:11:32.229Z,4.93
2022-08-27T13:14:09.422Z,4.53
2022-08-27T13:16:39.954Z,4.73
2022-08-27T13:19:09.256Z,4.70
2022-08-27T13:21:37.484Z,4.90
2022-08-27T13:24:07.155Z,5.07
2022-08-27T13:26:38.946Z,5.07
2022-08-27T13:29:09.126Z,5.03
2022-08-27T13:31:37.207Z,5.13
2022-08-27T13:34:06.847Z,5.37
2022-08-27T13:36:36.924Z,5.30
2022-08-27T13:39:06.879Z,5.63
2022-08-27T13:41:37.044Z,5.60
2022-08-27T13:44:10.886Z,5.20
2022-08-27T13:46:47.256Z,5.50
2022-08-27T13:49:19.921Z,5.30
2022-08-27T13:51:48.874Z,5.50
2022-08-27T13:54:17.875Z,5.20
2022-08-27T13:57:08.511Z,5.80
2022-08-27T13:59:43.082Z,5.43
2022-08-27T14:02:24.325Z,5.00
2022-08-27T14:05:06.417Z,5.80
2022-08-27T14:07:36.965Z,6.20
2022-08-27T14:10:08.016Z,6.23
2022-08-27T14:12:38.398Z,6.10
2022-08-27T14:15:20.935Z,6.13
2022-08-27T14:17:49.507Z,6.30
2022-08-27T14:20:42.520Z,5.60
2022-08-27T14:23:10.733Z,6.10
2022-08-27T14:25:38.847Z,5.70
2022-08-27T14:28:07.181Z,5.70
2022-08-27T14:30:37.120Z,5.40
2022-08-27T14:33:05.209Z,5.97
2022-08-27T14:35:34.837Z,5.80
2022-08-27T14:38:08.116Z,6.00
2022-08-27T14:40:36.359Z,5.63
2022-08-27T14:43:05.154Z,5.77
2022-08-27T14:45:37.080Z,5.60
2022-08-27T14:48:06.810Z,5.20
2022-08-27T14:50:43.472Z,5.80
2022-08-27T14:53:11.661Z,5.50
2022-08-27T14:55:39.914Z,5.67
2022-08-27T14:58:08.536Z,5.77
2022-08-27T15:00:38.454Z,5.17
2022-08-27T15:03:07.708Z,5.97
2022-08-27T15:05:35.756Z,5.80
2022-08-27T15:08:04.616Z,5.73
2022-08-27T15:10:33.014Z,6.30
2022-08-27T15:13:01.106Z,5.60
2022-08-27T15:15:29.213Z,5.60
2022-08-27T15:17:58.701Z,5.10
2022-08-27T15:20:26.807Z,4.67
2022-08-27T15:22:55.124Z,5.73
2022-08-27T15:25:23.497Z,5.67
2022-08-27T15:27:51.545Z,4.87
2022-08-27T15:30:27.132Z,4.80
2022-08-27T15:32:55.731Z,4.70
2022-08-27T15:35:27.530Z,5.10
2022-08-27T15:37:56.694Z,4.90
2022-08-27T15:40:25.686Z,5.00
2022-08-27T15:42:57.074Z,6.13
2022-08-27T15:45:27.629Z,5.30
2022-08-27T15:47:56.203Z,5.40
2022-08-27T15:50:25.896Z,4.73
2022-08-27T15:52:58.275Z,5.20
2022-08-27T15:55:29.496Z,5.20
2022-08-27T15:57:58.567Z,4.73
2022-08-27T16:00:28.205Z,4.40
2022-08-27T16:02:57.124Z,4.23
2022-08-27T16:05:27.803Z,5.03
2022-08-27T16:07:56.025Z,5.10
2022-08-27T16:10:24.210Z,4.57
2022-08-27T16:12:52.354Z,5.10
2022-08-27T16:15:20.693Z,4.60
2022-08-27T16:17:48.890Z,5.00
2022-08-27T16:20:17.135Z,5.50
2022-08-27T16:22:46.676Z,4.93
2022-08-27T16:25:18.475Z,5.20
2022-08-27T16:27:48.756Z,6.10
2022-08-27T16:30:17.179Z,5.80
2022-08-27T16:32:47.870Z,5.77
2022-08-27T16:35:16.577Z,5.67
2022-08-27T16:37:46.170Z,6.20
2022-08-27T16:40:15.030Z,6.03
2022-08-27T16:42:45.515Z,6.77
2022-08-27T16:45:14.790Z,6.40
2022-08-27T16:47:56.873Z,6.43
2022-08-27T16:50:37.041Z,6.30
2022-08-27T16:53:09.566Z,6.80
2022-08-27T16:55:39.117Z,5.87
2022-08-27T16:58:14.641Z,6.40
2022-08-27T17:00:42.887Z,6.27
2022-08-27T17:03:10.987Z,6.00
2022-08-27T17:05:39.176Z,6.00
2022-08-27T17:08:11.463Z,6.77
2022-08-27T17:10:43.377Z,6.90
2022-08-27T17:13:19.329Z,6.47
2022-08-27T17:15:53.167Z,6.30
2022-08-27T17:18:22.279Z,6.57
2022-08-27T17:20:50.495Z,6.80
2022-08-27T17:23:22.833Z,6.60
2022-08-27T17:25:51.046Z,6.00
2022-08-27T17:28:19.713Z,6.30
2022-08-27T17:30:47.886Z,6.83
2022-08-27T17:33:21.055Z,7.60
2022-08-27T17:35:49.299Z,6.90
2022-08-27T17:38:17.407Z,6.57
2022-08-27T17:40:47.308Z,6.57
2022-08-27T17:43:21.258Z,5.70
2022-08-27T17:45:50.082Z,6.20
2022-08-27T17:48:24.792Z,6.60
2022-08-27T17:50:55.026Z,6.10
2022-08-27T17:53:23.121Z,6.30
2022-08-27T17:55:52.743Z,5.80
2022-08-27T17:58:21.446Z,5.47
2022-08-27T18:00:50.083Z,6.23
2022-08-27T18:03:20.641Z,5.63
2022-08-27T18:05:49.511Z,6.10
2022-08-27T18:08:17.793Z,5.90
2022-08-27T18:10:48.851Z,5.70
2022-08-27T18:13:18.498Z,6.33
2022-08-27T18:15:46.827Z,5.87
2022-08-27T18:18:15.765Z,5.70
2022-08-27T18:20:43.818Z,6.33
2022-08-27T18:23:12.505Z,6.20
2022-08-27T18:25:41.030Z,6.00
2022-08-27T18:28:11.324Z,5.87
2022-08-27T18:30:43.460Z,6.13
2022-08-27T18:33:11.766Z,6.10
2022-08-27T18:35:40.364Z,6.23
2022-08-27T18:38:08.793Z,5.77
2022-08-27T18:40:39.461Z,6.00
2022-08-27T18:43:07.790Z,6.30
2022-08-27T18:45:37.766Z,5.80
2022-08-27T18:48:13.121Z,6.03
2022-08-27T18:50:45.001Z,6.03
2022-08-27T18:53:13.965Z,5.63
2022-08-27T18:55:42.330Z,5.80
2022-08-27T18:58:10.541Z,6.13
2022-08-27T19:00:39.187Z,6.43
2022-08-27T19:03:09.404Z,6.30
2022-08-27T19:05:37.638Z,6.40
2022-08-27T19:08:05.703Z,6.27
2022-08-27T19:10:34.578Z,5.90
2022-08-27T19:13:02.628Z,6.07
2022-08-27T19:15:30.721Z,5.87
2022-08-27T19:18:02.950Z,6.17
2022-08-27T19:20:32.545Z,5.63
2022-08-27T19:23:00.594Z,5.80
2022-08-27T19:25:29.579Z,6.10
2022-08-27T19:27:57.870Z,5.57
2022-08-27T19:30:26.999Z,6.17
2022-08-27T19:32:57.649Z,5.50
2022-08-27T19:35:26.116Z,5.37
2022-08-27T19:37:55.828Z,5.17
2022-08-27T19:40:24.141Z,5.60
2022-08-27T19:42:52.305Z,5.17
2022-08-27T19:45:23.030Z,5.80
2022-08-27T19:47:51.857Z,5.17
2022-08-27T19:50:20.488Z,4.70
2022-08-27T19:52:48.542Z,4.70
2022-08-27T19:55:18.307Z,5.20
2022-08-27T19:57:46.684Z,4.70
2022-08-27T20:00:17.044Z,4.17
2022-08-27T20:02:46.483Z,4.87
2022-08-27T20:05:19.021Z,4.90
2022-08-27T20:07:47.493Z,4.03
2022-08-27T20:10:16.941Z,4.10
2022-08-27T20:12:46.352Z,4.43
2022-08-27T20:15:15.212Z,4.30
2022-08-27T20:17:44.046Z,4.20
2022-08-27T20:20:13.603Z,4.17
2022-08-27T20:22:42.075Z,4.43
2022-08-27T20:25:10.902Z,4.37
2022-08-27T20:27:40.844Z,4.20
2022-08-27T20:30:11.465Z,4.07
2022-08-27T20:32:39.478Z,4.57
2022-08-27T20:35:09.579Z,4.77
2022-08-27T20:37:42.022Z,4.30
2022-08-27T20:40:15.110Z,4.47
2022-08-27T20:42:45.419Z,4.07
2022-08-27T20:45:14.063Z,3.73
2022-08-27T20:47:42.640Z,3.70
2022-08-27T20:50:12.817Z,3.90
2022-08-27T20:52:41.225Z,3.87
2022-08-27T20:55:12.080Z,4.57
2022-08-27T20:58:04.530Z,3.80
2022-08-27T21:00:37.025Z,3.90
2022-08-27T21:03:30.335Z,3.97
2022-08-27T21:05:58.338Z,4.10
2022-08-27T21:08:26.450Z,4.30
2022-08-27T21:10:57.409Z,4.17
2022-08-27T21:13:27.749Z,4.73
2022-08-27T21:15:57.249Z,4.80
2022-08-27T21:18:29.980Z,4.67
2022-08-27T21:20:58.675Z,4.40
2022-08-27T21:23:27.850Z,4.20
2022-08-27T21:25:56.125Z,4.73
2022-08-27T21:28:24.148Z,4.20
2022-08-27T21:30:52.141Z,4.43
2022-08-27T21:33:21.703Z,4.60
2022-08-27T21:35:49.757Z,4.30
2022-08-27T21:38:17.798Z,4.57
2022-08-27T21:40:45.834Z,4.30
2022-08-27T21:43:13.887Z,4.33
2022-08-27T21:45:45.880Z,4.20
2022-08-27T21:48:14.114Z,4.50
2022-08-27T21:50:43.653Z,4.20
2022-08-27T21:53:11.726Z,4.30
2022-08-27T21:55:39.781Z,4.10
2022-08-27T21:58:07.842Z,4.60
2022-08-27T22:00:41.095Z,4.33
2022-08-27T22:03:13.338Z,4.50
2022-08-27T22:05:45.016Z,4.40
2022-08-27T22:08:14.056Z,4.50
2022-08-27T22:10:44.593Z,4.80
2022-08-27T22:13:13.006Z,4.27
2022-08-27T22:15:41.523Z,4.40
2022-08-27T22:18:09.993Z,4.20
2022-08-27T22:20:38.399Z,4.30
2022-08-27T22:23:10.325Z,4.10
2022-08-27T22:25:38.496Z,4.13
2022-08-27T22:28:06.990Z,4.30
2022-08-27T22:30:35.175Z,4.40
2022-08-27T22:33:03.282Z,4.83
2022-08-27T22:35:31.349Z,4.10
2022-08-27T22:37:59.388Z,4.70
2022-08-27T22:40:30.744Z,4.27
2022-08-27T22:42:59.157Z,4.60
2022-08-27T22:45:28.178Z,4.70
2022-08-27T22:47:56.381Z,4.70
2022-08-27T22:50:24.801Z,4.50
2022-08-27T22:52:54.243Z,5.07
2022-08-27T22:55:23.656Z,4.13
2022-08-27T22:57:54.350Z,4.20
2022-08-27T23:00:24.996Z,4.10
2022-08-27T23:02:53.262Z,4.80
2022-08-27T23:05:21.820Z,4.57
2022-08-27T23:07:49.886Z,4.90
2022-08-27T23:10:19.362Z,5.03
2022-08-27T23:12:48.194Z,4.80
2022-08-27T23:15:19.712Z,4.53
2022-08-27T23:17:47.842Z,4.30
2022-08-27T23:20:17.055Z,4.60
2022-08-27T23:22:45.541Z,4.97
2022-08-27T23:25:31.615Z,4.57
2022-08-27T23:27:59.993Z,5.17
2022-08-27T23:30:30.353Z,4.80
2022-08-27T23:32:58.425Z,4.70
2022-08-27T23:35:29.128Z,4.90
2022-08-27T23:37:57.962Z,4.87
2022-08-27T23:40:26.456Z,5.10
2022-08-27T23:42:54.936Z,5.10
2022-08-27T23:45:25.371Z,5.03
2022-08-27T23:47:54.776Z,5.20
2022-08-27T23:50:31.525Z,5.10
2022-08-27T23:53:02.453Z,5.00
2022-08-27T23:55:30.553Z,5.47
2022-08-27T23:57:58.594Z,5.60
